createdAt,value
2022-08-11T00:00:19.175Z,31.63
2022-08-11T00:02:52.163Z,31.55
2022-08-11T00:05:25.179Z,31.62
2022-08-11T00:07:58.143Z,31.53
2022-08-11T00:10:31.129Z,31.61
2022-08-11T00:13:04.134Z,31.49
2022-08-11T00:15:37.163Z,31.68
2022-08-11T00:18:10.060Z,31.59
2022-08-11T00:20:42.894Z,31.73
2022-08-11T00:23:18.462Z,31.68
2022-08-11T00:25:49.164Z,31.70
2022-08-11T00:28:22.170Z,31.72
2022-08-11T00:30:55.231Z,31.89
2022-08-11T00:33:44.335Z,31.77
2022-08-11T00:36:01.160Z,32.11
2022-08-11T00:38:34.084Z,32.09
2022-08-11T00:41:07.160Z,31.93
2022-08-11T00:43:40.210Z,32.12
2022-08-11T00:46:13.152Z,32.19
2022-08-11T00:48:46.188Z,32.22
2022-08-11T00:51:19.171Z,32.18
2022-08-11T00:53:52.219Z,32.50
2022-08-11T00:56:25.173Z,32.25
2022-08-11T00:58:58.203Z,32.58
2022-08-11T01:01:31.361Z,33.08
2022-08-11T01:04:04.231Z,33.22
2022-08-11T01:06:37.177Z,32.69
2022-08-11T01:09:10.240Z,32.61
2022-08-11T01:11:56.048Z,32.61
2022-08-11T01:14:16.203Z,32.49
2022-08-11T01:16:49.257Z,32.72
2022-08-11T01:19:22.171Z,33.00
2022-08-11T01:21:55.270Z,33.00
2022-08-11T01:24:28.243Z,33.12
2022-08-11T01:27:01.263Z,32.69
2022-08-11T01:29:34.258Z,32.66
2022-08-11T01:32:07.185Z,33.24
2022-08-11T01:34:40.282Z,32.65
2022-08-11T01:37:13.236Z,32.49
2022-08-11T01:39:46.350Z,32.66
2022-08-11T01:42:19.306Z,32.71
2022-08-11T01:44:52.282Z,32.80
2022-08-11T01:47:25.200Z,32.63
2022-08-11T01:50:08.227Z,32.68
2022-08-11T01:52:35.189Z,32.58
2022-08-11T01:55:04.205Z,32.68
2022-08-11T01:57:37.344Z,32.62
2022-08-11T02:00:10.262Z,32.62
2022-08-11T02:02:43.322Z,32.62
2022-08-11T02:05:16.221Z,32.63
2022-08-11T02:07:49.324Z,32.74
2022-08-11T02:10:22.297Z,32.78
2022-08-11T02:12:55.378Z,32.73
2022-08-11T02:15:28.256Z,32.77
2022-08-11T02:18:01.328Z,32.88
2022-08-11T02:20:33.987Z,32.83
2022-08-11T02:23:07.303Z,32.95
2022-08-11T02:25:40.332Z,32.95
2022-08-11T02:28:13.320Z,32.80
2022-08-11T02:30:46.309Z,33.84
2022-08-11T02:33:19.363Z,33.75
2022-08-11T02:35:52.369Z,33.26
2022-08-11T02:38:25.347Z,33.24
2022-08-11T02:40:58.259Z,33.15
2022-08-11T02:43:31.361Z,33.14
2022-08-11T02:46:04.261Z,33.26
2022-08-11T02:48:37.356Z,33.21
2022-08-11T02:51:10.270Z,33.29
2022-08-11T02:53:43.379Z,33.23
2022-08-11T02:56:16.346Z,33.61
2022-08-11T02:58:49.322Z,33.63
2022-08-11T03:01:22.418Z,33.68
2022-08-11T03:03:55.342Z,33.69
2022-08-11T03:06:28.396Z,33.46
2022-08-11T03:09:01.400Z,33.10
2022-08-11T03:11:34.395Z,33.07
2022-08-11T03:14:07.304Z,33.01
2022-08-11T03:16:46.296Z,33.10
2022-08-11T03:19:19.424Z,33.38
2022-08-11T03:22:03.044Z,33.61
2022-08-11T03:24:25.428Z,33.87
2022-08-11T03:26:58.428Z,33.66
2022-08-11T03:29:31.354Z,33.74
2022-08-11T03:32:07.357Z,33.62
2022-08-11T03:34:40.427Z,33.89
2022-08-11T03:37:17.188Z,33.76
2022-08-11T03:39:56.455Z,33.75
2022-08-11T03:42:19.488Z,33.84
2022-08-11T03:44:52.367Z,33.95
2022-08-11T03:47:25.435Z,33.75
2022-08-11T03:49:58.453Z,33.63
2022-08-11T03:52:31.426Z,33.48
2022-08-11T03:55:04.393Z,33.78
2022-08-11T03:57:37.394Z,33.26
2022-08-11T04:00:10.463Z,33.34
2022-08-11T04:02:43.443Z,33.25
2022-08-11T04:05:16.440Z,33.38
2022-08-11T04:07:49.460Z,33.60
2022-08-11T04:10:22.475Z,33.81
2022-08-11T04:12:55.538Z,33.50
2022-08-11T04:15:28.377Z,33.50
2022-08-11T04:18:04.320Z,33.51
2022-08-11T04:20:37.394Z,34.69
2022-08-11T04:23:10.151Z,35.73
2022-08-11T04:25:55.862Z,36.24
2022-08-11T04:28:18.889Z,36.34
2022-08-11T04:30:49.297Z,36.50
2022-08-11T04:33:22.296Z,36.46
2022-08-11T04:35:55.284Z,36.46
2022-08-11T04:38:28.296Z,36.56
2022-08-11T04:41:01.468Z,36.42
2022-08-11T04:43:34.485Z,36.52
2022-08-11T04:46:07.159Z,36.43
2022-08-11T04:48:40.436Z,36.35
2022-08-11T04:51:17.068Z,36.46
2022-08-11T04:53:46.549Z,36.33
2022-08-11T04:56:19.508Z,36.42
2022-08-11T04:58:56.402Z,36.31
2022-08-11T05:01:32.799Z,36.43
2022-08-11T05:04:02.521Z,36.38
2022-08-11T05:06:35.462Z,36.29
2022-08-11T05:09:08.490Z,36.31
2022-08-11T05:11:41.473Z,36.23
2022-08-11T05:14:14.386Z,36.21
2022-08-11T05:16:47.250Z,36.22
2022-08-11T05:19:20.542Z,36.14
2022-08-11T05:21:53.611Z,36.11
2022-08-11T05:24:26.576Z,36.05
2022-08-11T05:26:59.670Z,36.02
2022-08-11T05:29:32.491Z,36.13
2022-08-11T05:32:05.506Z,36.08
2022-08-11T05:34:38.534Z,36.08
2022-08-11T05:37:26.249Z,36.14
2022-08-11T05:39:44.501Z,36.14
2022-08-11T05:42:29.375Z,36.21
2022-08-11T05:44:50.584Z,36.32
2022-08-11T05:47:23.659Z,36.36
2022-08-11T05:49:57.978Z,36.38
2022-08-11T05:52:31.817Z,36.45
2022-08-11T05:55:06.147Z,36.51
2022-08-11T05:57:49.855Z,36.56
2022-08-11T06:00:08.597Z,36.63
2022-08-11T06:02:41.553Z,36.68
2022-08-11T06:05:14.516Z,36.75
2022-08-11T06:07:49.464Z,36.82
2022-08-11T06:10:20.564Z,36.83
2022-08-11T06:12:53.653Z,36.84
2022-08-11T06:15:26.652Z,36.85
2022-08-11T06:17:59.663Z,36.97
2022-08-11T06:20:32.673Z,36.93
2022-08-11T06:23:05.614Z,36.94
2022-08-11T06:25:38.592Z,37.00
2022-08-11T06:28:11.325Z,37.03
2022-08-11T06:30:44.481Z,37.15
2022-08-11T06:33:17.491Z,37.27
2022-08-11T06:35:50.354Z,37.19
2022-08-11T06:38:23.529Z,37.35
2022-08-11T06:40:56.473Z,37.53
2022-08-11T06:43:29.353Z,37.33
2022-08-11T06:46:25.215Z,37.43
2022-08-11T06:48:49.731Z,37.46
2022-08-11T06:51:22.690Z,37.55
2022-08-11T06:54:03.276Z,37.71
2022-08-11T06:56:28.719Z,37.58
2022-08-11T06:59:01.382Z,37.69
2022-08-11T07:01:34.452Z,37.78
2022-08-11T07:04:07.403Z,37.77
2022-08-11T07:06:50.407Z,37.95
2022-08-11T07:09:13.386Z,37.99
2022-08-11T07:11:47.883Z,37.92
2022-08-11T07:14:21.408Z,37.80
2022-08-11T07:16:54.525Z,38.08
2022-08-11T07:19:27.525Z,38.14
2022-08-11T07:22:03.787Z,38.12
2022-08-11T07:24:58.399Z,38.26
2022-08-11T07:27:06.718Z,38.23
2022-08-11T07:29:39.417Z,38.29
2022-08-11T07:32:12.413Z,38.21
2022-08-11T07:34:45.614Z,38.28
2022-08-11T07:37:18.407Z,38.19
2022-08-11T07:39:51.680Z,38.27
2022-08-11T07:42:24.517Z,38.25
2022-08-11T07:44:57.569Z,38.29
2022-08-11T07:47:30.594Z,38.34
2022-08-11T07:50:03.610Z,38.38
2022-08-11T07:52:36.585Z,38.36
2022-08-11T07:55:10.328Z,38.38
2022-08-11T07:57:57.023Z,38.35
2022-08-11T08:00:15.577Z,38.29
2022-08-11T08:02:48.611Z,38.44
2022-08-11T08:05:21.771Z,38.41
2022-08-11T08:07:54.995Z,38.34
2022-08-11T08:10:27.580Z,38.47
2022-08-11T08:13:00.605Z,38.46
2022-08-11T08:15:33.627Z,38.49
2022-08-11T08:18:09.248Z,38.55
2022-08-11T08:20:39.461Z,38.56
2022-08-11T08:23:12.497Z,38.62
2022-08-11T08:25:45.643Z,38.72
2022-08-11T08:28:18.530Z,38.75
2022-08-11T08:30:51.696Z,38.77
2022-08-11T08:33:24.667Z,38.70
2022-08-11T08:35:57.607Z,38.80
2022-08-11T08:38:30.686Z,38.85
2022-08-11T08:41:05.410Z,38.75
2022-08-11T08:43:48.912Z,38.81
2022-08-11T08:46:11.699Z,38.95
2022-08-11T08:48:44.559Z,38.96
2022-08-11T08:51:17.580Z,38.95
2022-08-11T08:53:53.572Z,39.03
2022-08-11T08:56:23.715Z,39.09
2022-08-11T08:58:56.570Z,39.04
2022-08-11T09:01:43.557Z,39.11
2022-08-11T09:04:20.787Z,39.32
2022-08-11T09:06:50.119Z,39.24
2022-08-11T09:09:22.562Z,39.33
2022-08-11T09:11:55.748Z,39.32
2022-08-11T09:14:28.666Z,39.41
2022-08-11T09:17:01.642Z,39.38
2022-08-11T09:19:34.709Z,39.49
2022-08-11T09:22:07.561Z,39.48
2022-08-11T09:24:40.570Z,39.48
2022-08-11T09:27:13.641Z,39.57
2022-08-11T09:29:46.987Z,39.49
2022-08-11T09:32:19.877Z,39.54
2022-08-11T09:34:54.137Z,39.56
2022-08-11T09:37:54.045Z,39.56
2022-08-11T09:39:59.034Z,39.60
2022-08-11T09:42:31.949Z,39.46
2022-08-11T09:45:05.014Z,39.65
2022-08-11T09:47:38.002Z,39.88
2022-08-11T09:50:10.866Z,39.69
2022-08-11T09:52:57.408Z,39.76
2022-08-11T09:55:16.706Z,39.90
2022-08-11T09:57:49.771Z,39.83
2022-08-11T10:00:22.650Z,39.82
2022-08-11T10:02:55.922Z,40.10
2022-08-11T10:05:28.700Z,40.11
2022-08-11T10:08:01.903Z,40.19
2022-08-11T10:10:34.623Z,40.18
2022-08-11T10:14:30.449Z,40.21
2022-08-11T10:15:41.604Z,40.12
2022-08-11T10:18:13.631Z,40.18
2022-08-11T10:20:46.787Z,40.27
2022-08-11T10:23:19.696Z,40.22
2022-08-11T10:25:53.017Z,40.43
2022-08-11T10:28:33.867Z,40.29
2022-08-11T10:30:58.876Z,40.42
2022-08-11T10:33:37.645Z,40.21
2022-08-11T10:36:04.704Z,40.13
2022-08-11T10:38:37.682Z,40.00
2022-08-11T10:41:10.679Z,39.94
2022-08-11T10:44:02.537Z,39.79
2022-08-11T10:46:17.050Z,39.86
2022-08-11T10:48:50.048Z,39.91
2022-08-11T10:51:50.046Z,39.82
2022-08-11T10:53:55.710Z,39.76
2022-08-11T10:56:28.839Z,39.72
2022-08-11T10:59:03.992Z,39.74
2022-08-11T11:01:34.833Z,39.81
2022-08-11T11:04:07.717Z,39.79
2022-08-11T11:06:40.705Z,39.86
2022-08-11T11:09:13.707Z,39.88
2022-08-11T11:11:46.851Z,39.88
2022-08-11T11:14:19.845Z,39.83
2022-08-11T11:16:52.786Z,39.91
2022-08-11T11:19:25.949Z,39.92
2022-08-11T11:21:58.768Z,40.06
2022-08-11T11:24:31.878Z,40.13
2022-08-11T11:27:04.877Z,40.28
2022-08-11T11:29:37.797Z,40.45
2022-08-11T11:32:10.830Z,40.45
2022-08-11T11:34:52.754Z,40.33
2022-08-11T11:37:17.048Z,40.45
2022-08-11T11:39:50.015Z,40.34
2022-08-11T11:42:22.963Z,40.58
2022-08-11T11:44:57.828Z,40.61
2022-08-11T11:47:29.080Z,40.63
2022-08-11T11:50:02.148Z,40.78
2022-08-11T11:52:34.872Z,40.80
2022-08-11T11:55:07.778Z,40.83
2022-08-11T11:57:41.016Z,40.85
2022-08-11T12:00:16.947Z,40.95
2022-08-11T12:02:49.939Z,40.97
2022-08-11T12:05:22.885Z,40.92
2022-08-11T12:08:05.177Z,41.07
2022-08-11T12:10:28.949Z,41.07
2022-08-11T12:13:02.107Z,41.00
2022-08-11T12:16:31.441Z,40.85
2022-08-11T12:18:07.843Z,40.95
2022-08-11T12:20:40.963Z,41.06
2022-08-11T12:23:14.801Z,40.90
2022-08-11T12:25:50.020Z,41.00
2022-08-11T12:28:20.211Z,41.21
2022-08-11T12:30:54.173Z,41.22
2022-08-11T12:33:26.207Z,41.30
2022-08-11T12:36:00.564Z,41.25
2022-08-11T12:38:32.835Z,41.12
2022-08-11T12:41:15.140Z,41.14
2022-08-11T12:43:39.795Z,41.34
2022-08-11T12:46:12.174Z,41.39
2022-08-11T12:49:00.920Z,41.23
2022-08-11T12:51:18.063Z,41.42
2022-08-11T12:53:51.001Z,41.34
2022-08-11T12:56:37.752Z,41.33
2022-08-11T12:59:10.885Z,41.45
2022-08-11T13:01:43.856Z,41.38
2022-08-11T13:04:16.935Z,41.21
2022-08-11T13:06:49.915Z,41.34
2022-08-11T13:09:36.816Z,41.27
2022-08-11T13:12:09.943Z,41.32
2022-08-11T13:14:42.952Z,41.22
2022-08-11T13:17:16.042Z,41.23
2022-08-11T13:22:39.252Z,41.19
2022-08-11T13:25:14.907Z,41.19
2022-08-11T13:27:45.085Z,41.39
2022-08-11T13:30:18.301Z,41.46
2022-08-11T13:32:50.962Z,41.32
2022-08-11T13:35:24.071Z,41.37
2022-08-11T13:38:18.949Z,41.30
2022-08-11T13:40:45.725Z,41.35
2022-08-11T13:43:03.107Z,41.35
2022-08-11T13:45:37.835Z,41.32
2022-08-11T13:48:10.991Z,41.29
2022-08-11T13:50:43.979Z,41.30
2022-08-11T13:53:17.106Z,41.22
2022-08-11T13:55:51.476Z,41.25
2022-08-11T13:58:39.670Z,41.17
2022-08-11T14:00:56.096Z,41.21
2022-08-11T14:04:28.794Z,41.33
2022-08-11T14:06:02.040Z,41.13
2022-08-11T14:08:38.471Z,41.21
2022-08-11T14:11:08.011Z,41.10
2022-08-11T14:13:42.208Z,41.07
2022-08-11T14:16:14.016Z,40.90
2022-08-11T14:18:47.106Z,40.85
2022-08-11T14:21:20.004Z,40.88
2022-08-11T14:23:53.288Z,40.81
2022-08-11T14:26:26.031Z,40.82
2022-08-11T14:28:59.149Z,40.81
2022-08-11T14:31:32.164Z,40.83
2022-08-11T14:34:05.009Z,40.83
2022-08-11T14:36:37.990Z,40.82
2022-08-11T14:39:11.070Z,40.84
2022-08-11T14:42:10.388Z,40.83
2022-08-11T14:44:17.244Z,40.94
2022-08-11T14:46:50.041Z,41.00
2022-08-11T14:49:23.301Z,40.90
2022-08-11T14:51:56.062Z,40.89
2022-08-11T14:54:29.106Z,40.82
2022-08-11T14:57:02.157Z,40.87
2022-08-11T14:59:35.039Z,40.90
2022-08-11T15:02:08.042Z,40.84
2022-08-11T15:04:41.039Z,40.82
2022-08-11T15:07:16.321Z,40.79
2022-08-11T15:10:11.743Z,40.78
2022-08-11T15:12:32.579Z,40.75
2022-08-11T15:14:55.909Z,40.80
2022-08-11T15:17:29.451Z,40.76
2022-08-11T15:19:59.050Z,40.76
2022-08-11T15:22:32.048Z,40.71
2022-08-11T15:25:05.063Z,40.67
2022-08-11T15:27:38.234Z,40.74
2022-08-11T15:30:11.092Z,40.67
2022-08-11T15:32:44.143Z,40.79
2022-08-11T15:35:17.259Z,40.82
2022-08-11T15:37:50.178Z,40.87
2022-08-11T15:40:32.859Z,40.96
2022-08-11T15:42:56.358Z,41.04
2022-08-11T15:45:29.472Z,41.03
2022-08-11T15:48:05.356Z,41.12
2022-08-11T15:50:35.276Z,41.21
2022-08-11T15:53:08.397Z,41.16
2022-08-11T15:55:41.443Z,41.31
2022-08-11T15:58:14.115Z,41.27
2022-08-11T16:00:47.372Z,41.29
2022-08-11T16:03:20.253Z,41.35
2022-08-11T16:06:07.083Z,41.38
2022-08-11T16:08:40.116Z,41.49
2022-08-11T16:11:13.153Z,41.39
2022-08-11T16:13:46.159Z,41.55
2022-08-11T16:16:19.379Z,41.74
2022-08-11T16:18:52.317Z,41.69
2022-08-11T16:21:33.643Z,41.89
2022-08-11T16:23:58.481Z,41.85
2022-08-11T16:27:08.581Z,41.73
2022-08-11T16:29:04.546Z,41.52
2022-08-11T16:31:37.491Z,41.29
2022-08-11T16:34:10.182Z,40.93
2022-08-11T16:36:43.545Z,40.76
2022-08-11T16:39:16.455Z,40.59
2022-08-11T16:41:49.468Z,40.62
2022-08-11T16:44:37.047Z,40.74
2022-08-11T16:46:55.469Z,40.96
2022-08-11T16:49:32.799Z,40.86
2022-08-11T16:52:01.309Z,40.95
2022-08-11T16:54:34.285Z,41.01
2022-08-11T16:57:16.283Z,40.90
2022-08-11T16:59:40.205Z,40.85
2022-08-11T17:02:13.200Z,40.76
2022-08-11T17:04:46.248Z,40.75
2022-08-11T17:07:23.787Z,40.71
2022-08-11T17:09:52.505Z,40.69
2022-08-11T17:12:25.346Z,40.75
2022-08-11T17:14:58.264Z,40.74
2022-08-11T17:17:31.224Z,40.89
2022-08-11T17:20:42.417Z,40.84
2022-08-11T17:22:37.320Z,40.86
2022-08-11T17:25:10.329Z,40.83
2022-08-11T17:27:43.370Z,40.90
2022-08-11T17:30:16.305Z,40.92
2022-08-11T17:32:57.264Z,40.95
2022-08-11T17:35:22.468Z,40.90
2022-08-11T17:37:55.381Z,40.97
2022-08-11T17:40:28.469Z,40.87
2022-08-11T17:43:01.407Z,40.90
2022-08-11T17:45:34.305Z,40.91
2022-08-11T17:48:07.288Z,40.91
2022-08-11T17:50:40.295Z,41.01
2022-08-11T17:53:13.377Z,41.06
2022-08-11T17:55:52.229Z,41.04
2022-08-11T17:58:19.431Z,41.18
2022-08-11T18:00:52.277Z,41.21
2022-08-11T18:03:25.322Z,41.21
2022-08-11T18:05:58.313Z,41.30
2022-08-11T18:08:31.279Z,41.21
2022-08-11T18:11:04.629Z,41.20
2022-08-11T18:13:37.297Z,41.23
2022-08-11T18:16:10.307Z,41.26
2022-08-11T18:18:43.433Z,41.35
2022-08-11T18:21:20.203Z,41.25
2022-08-11T18:23:53.464Z,41.18
2022-08-11T18:26:26.497Z,41.16
2022-08-11T18:28:59.369Z,41.12
2022-08-11T18:31:32.507Z,41.10
2022-08-11T18:34:08.023Z,41.07
2022-08-11T18:36:38.383Z,41.01
2022-08-11T18:39:11.493Z,41.04
2022-08-11T18:41:44.523Z,41.01
2022-08-11T18:44:17.511Z,40.96
2022-08-11T18:46:50.535Z,40.93
2022-08-11T18:49:23.551Z,40.82
2022-08-11T18:51:56.541Z,40.72
2022-08-11T18:54:29.504Z,40.74
2022-08-11T18:57:02.476Z,40.79
2022-08-11T18:59:35.514Z,40.27
2022-08-11T19:02:08.687Z,39.44
2022-08-11T19:04:43.598Z,39.21
2022-08-11T19:07:20.431Z,38.73
2022-08-11T19:09:49.525Z,38.87
2022-08-11T19:12:22.410Z,38.62
2022-08-11T19:14:55.613Z,37.95
2022-08-11T19:17:45.094Z,37.75
2022-08-11T19:20:01.446Z,37.65
2022-08-11T19:22:34.691Z,36.76
2022-08-11T19:25:07.410Z,36.88
2022-08-11T19:27:40.759Z,36.75
2022-08-11T19:30:14.363Z,36.77
2022-08-11T19:32:46.415Z,36.47
2022-08-11T19:35:19.434Z,36.04
2022-08-11T19:37:52.587Z,35.77
2022-08-11T19:40:25.508Z,36.08
2022-08-11T19:42:58.495Z,36.05
2022-08-11T19:45:31.547Z,35.92
2022-08-11T19:48:29.951Z,35.83
2022-08-11T19:50:37.805Z,35.35
2022-08-11T19:53:16.979Z,34.32
2022-08-11T19:55:43.531Z,34.44
2022-08-11T19:58:16.445Z,34.39
2022-08-11T20:00:49.606Z,33.96
2022-08-11T20:03:22.699Z,34.59
2022-08-11T20:05:59.698Z,34.01
2022-08-11T20:08:28.664Z,33.74
2022-08-11T20:11:01.460Z,33.72
2022-08-11T20:13:34.475Z,33.21
2022-08-11T20:16:07.992Z,33.35
2022-08-11T20:18:41.531Z,33.46
2022-08-11T20:21:22.726Z,33.04
2022-08-11T20:23:47.642Z,33.21
2022-08-11T20:26:30.655Z,33.41
2022-08-11T20:28:53.837Z,33.44
2022-08-11T20:31:26.865Z,33.23
2022-08-11T20:33:59.629Z,33.05
2022-08-11T20:36:32.845Z,33.06
2022-08-11T20:39:05.587Z,32.72
2022-08-11T20:41:58.802Z,32.75
2022-08-11T20:44:11.755Z,32.80
2022-08-11T20:46:44.814Z,32.84
2022-08-11T20:49:17.719Z,33.00
2022-08-11T20:51:50.740Z,33.42
2022-08-11T20:54:41.938Z,34.57
2022-08-11T20:56:57.860Z,34.20
2022-08-11T20:59:29.601Z,33.97
2022-08-11T21:02:03.087Z,34.21
2022-08-11T21:04:35.824Z,35.13
2022-08-11T21:07:08.561Z,34.89
2022-08-11T21:10:00.772Z,35.74
2022-08-11T21:12:16.582Z,35.73
2022-08-11T21:14:49.671Z,35.39
2022-08-11T21:17:28.149Z,35.85
2022-08-11T21:20:06.850Z,35.97
2022-08-11T21:22:28.719Z,36.04
2022-08-11T21:25:01.823Z,35.62
2022-08-11T21:27:34.932Z,34.77
2022-08-11T21:30:07.848Z,34.77
2022-08-11T21:32:41.068Z,34.88
2022-08-11T21:35:13.581Z,34.11
2022-08-11T21:37:46.809Z,33.89
2022-08-11T21:40:19.815Z,33.88
2022-08-11T21:42:52.757Z,34.04
2022-08-11T21:45:25.667Z,34.06
2022-08-11T21:48:00.860Z,33.92
2022-08-11T21:50:31.749Z,33.71
2022-08-11T21:53:04.751Z,34.02
2022-08-11T21:55:37.800Z,33.63
2022-08-11T21:58:10.658Z,33.63
2022-08-11T22:00:43.808Z,33.50
2022-08-11T22:03:16.666Z,33.24
2022-08-11T22:05:49.657Z,33.20
2022-08-11T22:08:22.858Z,33.13
2022-08-11T22:10:55.629Z,33.27
2022-08-11T22:13:28.717Z,33.28
2022-08-11T22:16:01.765Z,33.11
2022-08-11T22:18:34.728Z,32.99
2022-08-11T22:21:07.637Z,32.83
2022-08-11T22:23:40.753Z,32.77
2022-08-11T22:26:13.640Z,32.72
2022-08-11T22:28:46.752Z,32.94
2022-08-11T22:31:19.878Z,32.79
2022-08-11T22:34:02.883Z,32.68
2022-08-11T22:36:26.034Z,32.55
2022-08-11T22:38:58.868Z,32.41
2022-08-11T22:41:32.037Z,32.59
2022-08-11T22:44:04.997Z,32.58
2022-08-11T22:46:37.998Z,32.33
2022-08-11T22:49:11.043Z,32.32
2022-08-11T22:51:43.993Z,32.21
2022-08-11T22:54:17.030Z,32.13
2022-08-11T22:56:50.095Z,32.05
2022-08-11T22:59:22.990Z,31.97
2022-08-11T23:01:56.438Z,31.84
2022-08-11T23:04:29.018Z,31.85
2022-08-11T23:07:02.062Z,31.71
2022-08-11T23:09:34.969Z,31.78
2022-08-11T23:12:10.400Z,31.69
2022-08-11T23:14:41.054Z,31.68
2022-08-11T23:17:14.034Z,31.74
2022-08-11T23:20:11.135Z,31.58
2022-08-11T23:22:20.089Z,31.65
2022-08-11T23:24:53.076Z,31.64
2022-08-11T23:27:26.141Z,31.72
2022-08-11T23:29:58.836Z,31.68
2022-08-11T23:32:32.133Z,31.50
2022-08-11T23:35:38.602Z,31.56
2022-08-11T23:37:38.065Z,31.62
2022-08-11T23:40:11.096Z,31.62
2022-08-11T23:42:46.332Z,31.65
2022-08-11T23:45:22.677Z,31.78
2022-08-11T23:47:52.184Z,31.74
2022-08-11T23:50:25.108Z,31.76
2022-08-11T23:52:58.161Z,31.71
2022-08-11T23:55:31.150Z,31.79
2022-08-11T23:58:04.164Z,31.82
